Terminal Aerodrome Forecast
Issued by NWS Cleveland, OH

Home | Current Version | Previous Version | Text Only | Print | Product List | Glossary Off
Versions: 1 2 3 4 5 6 7 8 9 10 11 12 13 14 15 16 17 18 19 20 21 22

000
FTUS41 KCLE 030500
TAFMFD
TAF
KMFD 030529Z 0306/0406 15003KT P6SM BKN100 BKN200
     FM031400 14010KT 4SM -SNPL OVC040
     FM031600 16010KT 3SM -FZRAPL BR BKN015 OVC030
     FM031800 20015KT 2SM -RA BR BKN005 OVC015 WS020/22040KT
     FM040200 24015G25KT 4SM -SHRA BKN005 OVC015=

USA.gov is the U.S. government's official web portal to all federal, state and local government web resources and services.